Latest Coastal Weather Observations for Dunalley

IDT60701

Issued at 1:52 am EDT Wednesday 18 January 2017 (issued every 10 minutes, with the page automatically refreshed every 10 minutes)

About coastal observations | Map of coastal stations | Coastal observations for TAS | Marine services | Other Formats
Station Details ID: 094254 Name: DUNALLEY (STROUD POINT) Lat: -42.90 Lon: 147.79 Height: 12.43 m
Data from the previous 72 hours. | See also: Recent months at Dunalley
Date/Time
EDT
Temp
°C
Wind Pressure Rain since
9am
mm
Weather Cloud Vis
km
Sea
Height
m
Swell
Dir  Spd
kts
Gust
kts
hPa Trend Height
m
Period
s
Dir
18/01:30am 18.1 WSW 19 22 1001.0 - 0.0 - - - - - - -
18/01:00am 18.3 W 15 18 1001.2 - 0.0 - - - - - - -
18/12:30am 17.2 NE 6 9 1001.2 - 0.0 - - - - - - -
18/12:00am 16.4 NE 2 4 1001.7 - 0.0 - - - - - - -
 
Date/Time
EDT
Temp
°C
Wind Pressure Rain since
9am
mm
Weather Cloud Vis
km
Sea
Height
m
Swell
Dir  Spd
kts
Gust
kts
hPa Trend Height
m
Period
s
Dir
17/11:30pm 16.5 NE 2 3 1002.2 - 0.0 - - - - - - -
17/11:00pm 17.0 ENE 4 7 1002.1 - 0.0 - - - - - - -
17/10:30pm 17.1 NE 6 8 1002.2 - 0.0 - - - - - - -
17/10:00pm 17.2 NNE 7 8 1002.0 - 0.0 - - - - - - -
17/09:30pm 17.4 NNE 9 11 1002.4 - 0.0 - - - - - - -
17/09:00pm 17.6 NE 9 11 1002.3 - 0.0 - - - - - - -
17/08:30pm 17.7 NE 8 10 1002.5 - 0.0 - - - - - - -
17/08:00pm 17.9 NE 11 13 1002.4 - 0.0 - - - - - - -
17/07:30pm 17.9 NE 11 13 1002.1 - 0.0 - - - - - - -
17/07:00pm 17.9 NE 9 11 1002.2 - 0.0 - - - - - - -
17/06:30pm 18.1 NE 9 11 1002.1 - 0.0 - - - - - - -
17/06:00pm 18.5 NE 10 13 1002.3 - 0.0 - - - - - - -
17/05:30pm 18.4 NE 10 12 1002.4 - 0.0 - - - - - - -
17/05:00pm 18.8 ENE 9 12 1002.4 - 0.0 - - - - - - -
17/04:30pm 18.8 ENE 11 15 1002.4 - 0.0 - - - - - - -
17/04:00pm 19.1 NE 11 13 1002.7 - 0.0 - - - - - - -
17/03:30pm 18.6 NE 12 15 1002.9 - 0.0 - - - - - - -
17/03:00pm 18.8 NE 13 16 1002.6 - 0.0 - - - - - - -
17/02:30pm 18.6 NE 14 16 1002.7 - 0.0 - - - - - - -
17/02:00pm 20.9 NE 8 11 1002.6 - 0.0 - - - - - - -
17/01:30pm 20.7 NNE 3 4 1003.0 - 0.0 - - - - - - -
17/01:00pm 20.6 NNE 3 5 1003.2 - 0.0 - - - - - - -
17/12:30pm 21.0 NNE 5 5 1003.4 - 0.0 - - - - - - -
17/12:00pm 20.2 NNE 4 6 1003.5 - 0.0 - - - - - - -
17/11:30am 20.8 NNE 6 7 1003.8 - 0.0 - - - - - - -
17/11:00am 20.7 NNE 4 6 1004.2 - 0.0 - - - - - - -
17/10:30am 19.0 NNE 4 6 1004.5 - 0.0 - - - - - - -
17/10:00am 18.4 NNE 3 4 1004.8 - 0.0 - - - - - - -
17/09:30am 17.3 NNE 1 3 1005.2 - 0.0 - - - - - - -
17/09:00am 17.8 NNE 2 3 1005.5 - 0.0 - - - - - - -
17/08:30am 17.5 NNE 2 3 1005.8 - 0.0 - - - - - - -
17/08:00am 16.8 CALM 0 1 1005.9 - 0.0 - - - - - - -
17/07:30am 15.7 CALM 0 0 1005.8 - 0.0 - - - - - - -
17/07:00am 14.7 NNE 2 3 1005.1 - 0.0 - - - - - - -
17/06:30am 13.2 NNE 3 3 1005.0 - 0.0 - - - - - - -
17/06:00am 12.7 NNE 3 3 1004.4 - 0.0 - - - - - - -
17/05:30am 12.8 NNE 4 5 1004.1 - 0.0 - - - - - - -
17/05:00am 13.4 NNE 4 5 1003.9 - 0.0 - - - - - - -
17/04:30am 13.2 NNE 6 7 1003.6 - 0.0 - - - - - - -
17/04:00am 13.9 NNE 5 6 1003.7 - 0.0 - - - - - - -
17/03:30am 13.2 NNE 4 5 1003.6 - 0.0 - - - - - - -
17/03:00am 14.6 NNE 3 4 1003.8 - 0.0 - - - - - - -
17/02:30am 15.2 CALM 0 2 1003.7 - 0.0 - - - - - - -
17/02:00am 15.2 NNE 3 5 1004.2 - 0.0 - - - - - - -
17/01:30am 14.3 CALM 0 3 1004.6 - 0.0 - - - - - - -
17/01:00am 13.7 NNE 1 3 1004.7 - 0.0 - - - - - - -
17/12:30am 14.6 NNE 3 3 1005.1 - 0.0 - - - - - - -
17/12:00am 14.7 NNE 4 4 1005.6 - 0.0 - - - - - - -
 
Date/Time
EDT
Temp
°C
Wind Pressure Rain since
9am
mm
Weather Cloud Vis
km
Sea
Height
m
Swell
Dir  Spd
kts
Gust
kts
hPa Trend Height
m
Period
s
Dir
16/11:30pm 15.6 NNE 1 2 1005.6 - 0.0 - - - - - - -
16/11:00pm 15.2 NNE 1 3 1005.8 - 0.0 - - - - - - -
16/10:30pm 14.8 NE 4 5 1005.9 - 0.0 - - - - - - -
16/10:00pm 15.5 NE 5 6 1006.0 - 0.0 - - - - - - -
16/09:30pm 16.0 NE 4 6 1006.1 - 0.0 - - - - - - -
16/09:00pm 16.9 NE 10 12 1005.8 - 0.0 - - - - - - -
16/08:30pm 17.4 NE 12 15 1005.7 - 0.0 - - - - - - -
16/08:00pm 18.0 NE 13 17 1005.8 - 0.0 - - - - - - -
16/07:30pm 18.7 ENE 15 19 1005.9 - 0.0 - - - - - - -
16/07:00pm 18.9 ENE 17 21 1005.7 - 0.0 - - - - - - -
16/06:30pm 19.9 ENE 16 21 1006.0 - 0.0 - - - - - - -
16/06:00pm 20.4 NE 16 19 1006.3 - 0.0 - - - - - - -
16/05:30pm 20.0 NE 17 21 1006.7 - 0.0 - - - - - - -
16/05:00pm 20.5 NE 16 19 1007.1 - 0.0 - - - - - - -
16/04:30pm 20.8 ENE 16 19 1007.5 - 0.0 - - - - - - -
16/04:00pm 20.3 ENE 17 21 1007.9 - 0.0 - - - - - - -
16/03:30pm 20.7 ENE 16 19 1008.2 - 0.0 - - - - - - -
16/03:00pm 20.9 NE 16 21 1008.5 - 0.0 - - - - - - -
16/02:30pm 21.1 NE 14 18 1008.7 - 0.0 - - - - - - -
16/02:00pm 21.1 NE 13 17 1008.9 - 0.0 - - - - - - -
16/01:30pm 21.2 NE 10 13 1009.3 - 0.0 - - - - - - -
16/01:00pm 21.4 ENE 7 13 1009.5 - 0.0 - - - - - - -
16/12:30pm 20.2 SW 4 7 1009.9 - 0.0 - - - - - - -
16/12:00pm 20.5 SW 9 11 1010.0 - 0.0 - - - - - - -
16/11:30am 19.2 SSW 8 12 1010.4 - 0.0 - - - - - - -
16/11:00am 19.4 WSW 10 13 1010.7 - 0.0 - - - - - - -
16/10:30am 19.2 WSW 11 14 1010.9 - 0.0 - - - - - - -
16/10:00am 17.5 W 10 14 1011.0 - 0.0 - - - - - - -
16/09:30am 17.5 WNW 12 15 1011.1 - 0.0 - - - - - - -
16/09:00am 17.7 W 10 15 1011.0 - 0.0 - - - - - - -
16/08:30am 16.8 WNW 11 16 1011.0 - 0.0 - - - - - - -
16/08:00am 16.4 WNW 10 15 1010.9 - 0.0 - - - - - - -
16/07:30am 15.8 W 13 17 1010.7 - 0.0 - - - - - - -
16/07:00am 14.7 WNW 10 14 1010.4 - 0.0 - - - - - - -
16/06:30am 13.7 WNW 10 13 1010.3 - 0.0 - - - - - - -
16/06:00am 13.7 WNW 10 14 1010.2 - 0.0 - - - - - - -
16/05:30am 13.4 WNW 8 16 1010.0 - 0.0 - - - - - - -
16/05:00am 13.6 WNW 8 12 1009.9 - 0.0 - - - - - - -
16/04:30am 13.4 WNW 10 13 1009.6 - 0.0 - - - - - - -
16/04:00am 13.7 WNW 10 14 1009.6 - 0.0 - - - - - - -
16/03:30am 13.5 WNW 9 14 1009.8 - 0.0 - - - - - - -
16/03:00am 13.6 WNW 9 12 1010.1 - 0.0 - - - - - - -
16/02:30am 13.9 WNW 10 14 1010.1 - 0.0 - - - - - - -
16/02:00am 13.9 WNW 10 15 1010.4 - 0.0 - - - - - - -
16/01:30am 14.0 WNW 9 13 1010.8 - 0.0 - - - - - - -
16/01:00am 14.1 WNW 10 16 1011.1 - 0.0 - - - - - - -
16/12:30am 14.5 WNW 13 21 1011.0 - 0.0 - - - - - - -
16/12:00am 14.7 WNW 12 18 1011.4 - 0.0 - - - - - - -
 
Date/Time
EDT
Temp
°C
Wind Pressure Rain since
9am
mm
Weather Cloud Vis
km
Sea
Height
m
Swell
Dir  Spd
kts
Gust
kts
hPa Trend Height
m
Period
s
Dir
15/11:30pm 14.9 WNW 13 19 1011.4 - 0.0 - - - - - - -
15/11:00pm 14.8 WNW 7 11 1011.7 - 0.0 - - - - - - -
15/10:30pm 15.0 WNW 8 13 1012.1 - 0.0 - - - - - - -
15/10:00pm 14.9 W 7 10 1012.2 - 0.0 - - - - - - -
15/09:30pm 15.8 W 14 20 1012.0 - 0.0 - - - - - - -
15/09:00pm 16.3 W 13 19 1012.0 - 0.0 - - - - - - -
15/08:30pm 16.8 W 18 24 1011.9 - 0.0 - - - - - - -
15/08:00pm 17.6 W 18 25 1011.9 - 0.0 - - - - - - -
15/07:47pm 17.8 W 19 30 1011.9 - 0.0 - - - - - - -
15/07:30pm 18.2 W 20 25 1011.5 - 0.0 - - - - - - -
15/07:00pm 18.8 W 21 27 1011.4 - 0.0 - - - - - - -
15/06:30pm 19.6 W 19 23 1011.4 - 0.0 - - - - - - -
15/06:00pm 19.9 W 18 22 1011.4 - 0.0 - - - - - - -
15/05:30pm 20.1 WSW 14 17 1011.4 - 0.0 - - - - - - -
15/05:00pm 20.2 WSW 17 20 1011.4 - 0.0 - - - - - - -
15/04:30pm 20.7 WSW 16 20 1011.7 - 0.0 - - - - - - -
15/04:00pm 20.5 WSW 18 22 1011.4 - 0.0 - - - - - - -
15/03:30pm 20.0 SW 13 16 1011.4 - 0.0 - - - - - - -
15/03:00pm 19.8 SW 12 15 1011.6 - 0.0 - - - - - - -
15/02:30pm 20.2 SW 12 16 1011.7 - 0.0 - - - - - - -
15/02:00pm 18.6 WSW 10 13 1012.0 - 0.0 - - - - - - -
15/01:30pm 18.3 SW 10 12 1012.2 - 0.0 - - - - - - -
15/01:00pm 18.1 SW 8 11 1012.2 - 0.0 - - - - - - -
15/12:30pm 18.4 SW 7 9 1012.1 - 0.0 - - - - - - -
15/12:00pm 18.0 SW 7 10 1012.4 - 0.0 - - - - - - -
15/11:30am 17.6 WSW 9 12 1012.5 - 0.0 - - - - - - -
15/11:00am 17.6 WSW 9 12 1012.6 - 0.0 - - - - - - -
15/10:30am 17.0 W 7 11 1012.6 - 0.0 - - - - - - -
15/10:00am 17.0 WSW 11 14 1012.2 - 0.0 - - - - - - -
15/09:30am 15.2 WNW 7 11 1012.2 - 0.0 - - - - - - -
15/09:00am 14.9 W 11 15 1012.0 - 0.0 - - - - - - -
15/08:30am 15.2 WSW 21 28 1011.5 - 0.0 - - - - - - -
15/08:00am 14.6 W 17 25 1011.4 - 0.0 - - - - - - -
15/07:31am 14.0 W 17 27 1011.3 - 0.0 - - - - - - -
15/07:30am 13.8 W 18 27 1011.3 - 0.0 - - - - - - -
15/07:00am 13.8 WSW 21 25 1010.7 - 0.0 - - - - - - -
15/06:30am 13.7 WSW 19 25 1010.2 - 0.0 - - - - - - -
15/06:00am 13.5 W 20 26 1009.8 - 0.0 - - - - - - -
15/05:30am 13.4 WSW 23 28 1009.4 - 0.0 - - - - - - -
15/05:00am 13.4 WSW 22 27 1009.3 - 0.0 - - - - - - -
15/04:30am 13.4 WSW 24 31 1008.7 - 0.0 - - - - - - -
15/04:00am 13.3 WSW 23 28 1008.0 - 0.0 - - - - - - -
15/03:30am 13.4 WSW 25 31 1007.7 - 0.0 - - - - - - -
15/03:00am 13.4 WSW 29 38 1007.3 - 0.0 - - - - - - -
15/02:30am 13.5 WSW 25 34 1007.6 - 0.0 - - - - - - -
15/02:00am 14.1 WSW 22 27 1007.8 - 0.0 - - - - - - -

Other Formats:

Comma delimited format used in spreadsheet applications
http://www.bom.gov.au/fwo/IDT60701/IDT60701.94951.axf

JavaScript Object Notation format (JSON) in row-major order
http://www.bom.gov.au/fwo/IDT60701/IDT60701.94951.json